Time;durP1;ratioP1;P1;durP2;ratioP2;P2;SDS_P1;SDS_P2;PMS_P1;PMS_P2;Temp;Humidity;BMP_temperature;BMP_pressure;BME280_temperature;BME280_humidity;BME280_pressure;Samples;Min_cycle;Max_cycle;Signal;HPM_P1;HPM_P2
2022/08/23 00:01:37;;;;;;;1.30;1.20;;;24.30;44.60;;;;;;936019;152;27422;-75
2022/08/23 00:04:02;;;;;;;2.55;1.62;;;24.30;44.60;;;;;;934334;151;27453;-76
2022/08/23 00:06:28;;;;;;;1.40;1.30;;;24.30;44.60;;;;;;934554;150;27395;-74
2022/08/23 00:08:55;;;;;;;1.27;1.10;;;24.30;44.80;;;;;;935235;152;27337;-75
2022/08/23 00:11:34;;;;;;;1.60;1.30;;;24.30;44.90;;;;;;934256;152;27317;-75
2022/08/23 00:14:00;;;;;;;1.40;1.30;;;24.30;44.80;;;;;;933824;152;27423;-75
2022/08/23 00:16:27;;;;;;;1.77;1.32;;;24.20;44.80;;;;;;934435;152;27409;-76
2022/08/23 00:18:54;;;;;;;1.32;1.05;;;24.20;44.90;;;;;;934611;152;27370;-75
2022/08/23 00:21:20;;;;;;;1.60;1.50;;;24.20;45.00;;;;;;935977;152;27457;-75
2022/08/23 00:23:47;;;;;;;1.20;1.10;;;24.20;45.00;;;;;;933251;152;27364;-75
2022/08/23 00:26:13;;;;;;;1.30;1.20;;;24.10;45.00;;;;;;935264;152;27336;-75
2022/08/23 00:28:40;;;;;;;1.45;1.20;;;24.10;45.10;;;;;;934821;152;27407;-75
2022/08/23 00:31:07;;;;;;;1.50;1.40;;;24.00;45.20;;;;;;934864;152;27380;-76
2022/08/23 00:33:34;;;;;;;1.27;1.12;;;24.00;45.20;;;;;;933905;152;27805;-75
2022/08/23 00:36:00;;;;;;;1.32;1.22;;;23.90;45.30;;;;;;933461;152;27371;-75
2022/08/23 00:38:26;;;;;;;1.47;1.30;;;23.80;45.30;;;;;;936908;152;27339;-75
2022/08/23 00:40:53;;;;;;;1.92;1.50;;;23.80;45.50;;;;;;936937;147;27424;-75
2022/08/23 00:48:52;;;;;;;1.35;1.25;;;23.50;45.70;;;;;;933425;152;27444;-75
2022/08/23 00:51:21;;;;;;;2.50;1.60;;;23.30;45.80;;;;;;935372;152;27295;-75
2022/08/23 00:53:48;;;;;;;2.15;1.30;;;23.30;46.10;;;;;;934502;152;27355;-75
2022/08/23 00:56:15;;;;;;;1.60;1.50;;;23.20;46.30;;;;;;935482;152;27426;-75
2022/08/23 00:58:41;;;;;;;1.90;1.50;;;23.10;46.40;;;;;;934593;151;27360;-76
2022/08/23 01:01:08;;;;;;;1.87;1.30;;;23.00;46.60;;;;;;933979;152;27354;-75
2022/08/23 01:03:34;;;;;;;1.40;1.27;;;22.90;46.70;;;;;;936203;152;27407;-75
2022/08/23 01:06:01;;;;;;;1.40;1.05;;;22.80;46.90;;;;;;933130;152;27339;-74
2022/08/23 01:08:28;;;;;;;1.50;1.40;;;22.70;47.00;;;;;;933893;152;27422;-75
2022/08/23 01:10:57;;;;;;;2.17;1.27;;;22.70;47.20;;;;;;932936;151;27456;-76
2022/08/23 01:13:28;;;;;;;1.75;1.42;;;22.60;47.30;;;;;;933107;152;27371;-76
2022/08/23 01:15:56;;;;;;;2.25;1.40;;;22.50;47.40;;;;;;935290;152;27610;-75
2022/08/23 01:18:22;;;;;;;1.62;1.50;;;22.40;47.60;;;;;;933072;152;27440;-75
2022/08/23 01:20:55;;;;;;;1.72;1.62;;;22.30;47.60;;;;;;936722;152;27338;-75
2022/08/23 01:23:27;;;;;;;1.22;1.20;;;22.20;47.80;;;;;;932872;152;27383;-74
2022/08/23 01:25:54;;;;;;;1.52;1.30;;;22.10;48.00;;;;;;935457;152;27350;-75
2022/08/23 01:28:21;;;;;;;2.75;1.72;;;22.00;48.10;;;;;;935636;149;27279;-75
2022/08/23 01:30:47;;;;;;;2.55;1.67;;;21.90;48.40;;;;;;934421;151;27406;-74
2022/08/23 01:33:14;;;;;;;1.70;1.60;;;21.80;48.60;;;;;;933880;151;27343;-75
2022/08/23 01:35:41;;;;;;;1.32;1.30;;;21.70;48.70;;;;;;934633;152;27310;-76
2022/08/23 01:38:07;;;;;;;1.30;1.25;;;21.70;48.90;;;;;;933684;152;27463;-75
2022/08/23 01:40:34;;;;;;;1.60;1.50;;;21.60;49.00;;;;;;935523;149;27467;-74
2022/08/23 01:43:00;;;;;;;2.85;1.85;;;21.50;49.20;;;;;;934286;147;27330;-75
2022/08/23 01:45:27;;;;;;;1.55;1.45;;;21.50;49.30;;;;;;934552;152;27277;-75
2022/08/23 01:47:54;;;;;;;1.50;1.40;;;21.40;49.40;;;;;;935009;152;27299;-75
2022/08/23 01:50:20;;;;;;;1.77;1.30;;;21.30;49.50;;;;;;935226;152;27372;-76
2022/08/23 01:52:47;;;;;;;3.15;1.45;;;21.20;49.70;;;;;;935429;152;27359;-74
2022/08/23 01:55:13;;;;;;;1.27;1.10;;;21.20;49.80;;;;;;936637;152;27802;-75
2022/08/23 01:57:40;;;;;;;1.77;1.40;;;21.10;49.90;;;;;;937977;152;27374;-74
2022/08/23 02:00:07;;;;;;;1.52;1.42;;;21.00;50.00;;;;;;936445;149;27406;-75
2022/08/23 02:02:33;;;;;;;1.27;1.17;;;21.00;50.20;;;;;;935351;152;27415;-74
2022/08/23 02:05:00;;;;;;;1.32;1.22;;;20.90;50.40;;;;;;936349;152;27551;-75
2022/08/23 02:07:26;;;;;;;1.65;1.55;;;20.80;50.50;;;;;;936676;149;27324;-74
2022/08/23 02:09:53;;;;;;;1.98;1.30;;;20.70;50.60;;;;;;936267;152;27302;-74
2022/08/23 02:12:19;;;;;;;3.17;1.60;;;20.70;50.80;;;;;;936839;152;27641;-76
2022/08/23 02:14:46;;;;;;;2.12;1.87;;;20.60;51.00;;;;;;934502;152;27344;-75
2022/08/23 02:17:14;;;;;;;1.67;1.47;;;20.50;51.10;;;;;;936380;152;27468;-74
2022/08/23 02:19:39;;;;;;;1.47;1.37;;;20.40;51.30;;;;;;935066;152;28479;-74
2022/08/23 02:22:06;;;;;;;5.25;1.62;;;20.40;51.60;;;;;;933755;152;27340;-75
2022/08/23 02:24:33;;;;;;;1.98;1.37;;;20.30;51.60;;;;;;935271;152;27332;-75
2022/08/23 02:26:59;;;;;;;3.42;1.70;;;20.20;51.90;;;;;;935496;152;27340;-75
2022/08/23 02:29:28;;;;;;;1.95;1.45;;;20.20;52.10;;;;;;935606;151;27367;-74
2022/08/23 02:31:52;;;;;;;2.72;1.75;;;20.10;52.30;;;;;;933782;152;27387;-74
2022/08/23 02:34:19;;;;;;;2.37;1.65;;;20.10;52.30;;;;;;936811;151;27391;-75
2022/08/23 02:36:45;;;;;;;2.83;1.80;;;20.00;52.40;;;;;;935034;152;27297;-74
2022/08/23 02:39:12;;;;;;;2.12;1.90;;;20.00;52.60;;;;;;934112;152;27347;-75
2022/08/23 02:41:40;;;;;;;1.95;1.45;;;20.00;52.80;;;;;;934189;150;27497;-76
2022/08/23 02:44:05;;;;;;;2.50;1.70;;;19.90;53.00;;;;;;934987;152;27381;-76
2022/08/23 02:46:32;;;;;;;2.35;1.80;;;19.90;53.10;;;;;;935870;152;28462;-76
2022/08/23 02:48:58;;;;;;;1.45;1.35;;;19.80;53.30;;;;;;933732;152;27293;-76
2022/08/23 02:51:25;;;;;;;1.60;1.50;;;19.80;53.40;;;;;;935329;152;27320;-76
2022/08/23 02:53:51;;;;;;;3.42;1.45;;;19.80;54.10;;;;;;936130;152;27307;-76
2022/08/23 02:56:18;;;;;;;1.55;1.42;;;19.70;53.60;;;;;;934861;152;27378;-76
2022/08/23 02:58:45;;;;;;;1.62;1.52;;;19.70;53.90;;;;;;935894;149;27375;-76
2022/08/23 03:01:17;;;;;;;2.90;1.82;;;19.70;54.00;;;;;;935377;152;27432;-74
2022/08/23 03:03:44;;;;;;;2.05;1.60;;;19.60;54.10;;;;;;933861;151;27327;-74
2022/08/23 03:06:10;;;;;;;2.35;1.60;;;19.60;54.20;;;;;;934946;152;27408;-76
2022/08/23 03:08:37;;;;;;;2.45;1.40;;;19.60;54.30;;;;;;934265;152;27365;-74
2022/08/23 03:11:03;;;;;;;2.72;1.70;;;19.50;54.30;;;;;;936249;152;27318;-75
2022/08/23 03:13:30;;;;;;;2.80;1.70;;;19.50;54.50;;;;;;932771;152;27347;-74
2022/08/23 03:15:56;;;;;;;2.10;1.72;;;19.50;54.60;;;;;;934085;152;27412;-75
2022/08/23 03:18:23;;;;;;;2.58;1.57;;;19.50;54.80;;;;;;936350;151;27336;-75
2022/08/23 03:20:50;;;;;;;1.50;1.40;;;19.50;54.90;;;;;;934855;152;27375;-74
2022/08/23 03:23:16;;;;;;;1.77;1.67;;;19.40;55.00;;;;;;935079;152;28285;-74
2022/08/23 03:25:43;;;;;;;2.92;1.80;;;19.40;55.10;;;;;;936755;152;27408;-75
2022/08/23 03:28:09;;;;;;;2.50;1.85;;;19.40;55.20;;;;;;935070;149;27334;-75
2022/08/23 03:30:36;;;;;;;2.37;2.17;;;19.40;55.30;;;;;;934135;152;27469;-75
2022/08/23 03:33:03;;;;;;;2.60;1.85;;;19.40;55.50;;;;;;937533;152;27346;-74
2022/08/23 03:35:30;;;;;;;2.00;1.50;;;19.30;55.60;;;;;;934625;149;27356;-74
2022/08/23 03:37:56;;;;;;;1.70;1.60;;;19.30;55.60;;;;;;935813;152;27312;-74
2022/08/23 03:40:22;;;;;;;2.40;1.82;;;19.30;55.10;;;;;;935499;152;27718;-75
2022/08/23 03:42:49;;;;;;;4.33;1.62;;;19.30;55.80;;;;;;939095;147;27309;-76
2022/08/23 03:45:16;;;;;;;1.85;1.70;;;19.30;55.80;;;;;;944303;147;27264;-74
2022/08/23 03:47:43;;;;;;;2.45;2.12;;;19.30;55.90;;;;;;945153;149;27331;-75
2022/08/23 03:50:09;;;;;;;4.90;1.70;;;19.30;56.10;;;;;;945341;150;27302;-76
2022/08/23 03:52:35;;;;;;;1.80;1.70;;;19.20;56.00;;;;;;944373;150;27238;-75
2022/08/23 03:55:02;;;;;;;3.60;1.70;;;19.20;56.20;;;;;;945573;150;27340;-75
2022/08/23 03:57:28;;;;;;;2.37;1.85;;;19.20;56.30;;;;;;947330;150;27338;-74
2022/08/23 03:59:58;;;;;;;3.02;1.90;;;19.10;56.30;;;;;;948001;149;27247;-74
2022/08/23 04:02:22;;;;;;;2.65;1.90;;;19.10;56.50;;;;;;945269;150;27838;-75
2022/08/23 04:04:48;;;;;;;2.37;1.72;;;19.10;56.60;;;;;;946785;150;27270;-74
2022/08/23 04:07:15;;;;;;;2.50;1.55;;;19.00;56.60;;;;;;946880;150;27195;-75
2022/08/23 04:09:42;;;;;;;1.95;1.77;;;19.00;56.70;;;;;;946297;149;27274;-75
2022/08/23 04:12:08;;;;;;;3.05;2.08;;;19.00;56.90;;;;;;946515;149;27253;-75
2022/08/23 04:14:35;;;;;;;1.75;1.65;;;18.90;56.90;;;;;;946699;150;27211;-74
2022/08/23 04:17:01;;;;;;;3.50;1.65;;;18.90;57.00;;;;;;944947;150;27658;-75
2022/08/23 04:19:28;;;;;;;2.30;2.08;;;18.90;57.00;;;;;;943105;149;27241;-74
2022/08/23 04:21:54;;;;;;;2.50;2.30;;;18.90;57.10;;;;;;947397;149;27244;-76
2022/08/23 04:24:21;;;;;;;1.87;1.77;;;18.90;57.20;;;;;;944769;149;27366;-75
2022/08/23 04:26:48;;;;;;;2.12;1.92;;;18.90;57.30;;;;;;944542;149;27228;-75
2022/08/23 04:29:15;;;;;;;2.08;1.87;;;18.90;57.40;;;;;;946404;149;27226;-75
2022/08/23 04:31:41;;;;;;;2.60;1.85;;;18.80;57.50;;;;;;946157;148;27171;-75
2022/08/23 04:34:07;;;;;;;2.40;1.95;;;18.80;57.60;;;;;;943644;149;27224;-76
2022/08/23 04:36:34;;;;;;;2.40;2.20;;;18.80;57.70;;;;;;944963;149;27254;-75
2022/08/23 04:39:00;;;;;;;2.02;1.87;;;18.80;58.30;;;;;;944171;149;27766;-74
2022/08/23 04:44:13;;;;;;;3.65;2.42;;;18.90;57.90;;;;;;947069;149;27346;-75
2022/08/23 04:46:39;;;;;;;1.92;1.80;;;18.90;57.70;;;;;;945795;149;27358;-74
2022/08/23 04:49:05;;;;;;;2.17;1.75;;;18.90;58.20;;;;;;944296;149;27306;-75
2022/08/23 04:51:32;;;;;;;2.30;2.10;;;19.00;57.90;;;;;;947903;149;27292;-74
2022/08/23 04:53:58;;;;;;;3.25;2.22;;;19.00;58.00;;;;;;947858;149;27318;-74
2022/08/23 04:56:25;;;;;;;2.20;1.75;;;19.00;58.00;;;;;;945151;149;28231;-74
2022/08/23 04:58:51;;;;;;;3.12;1.82;;;19.00;58.10;;;;;;945743;150;27217;-74
2022/08/23 05:01:18;;;;;;;2.72;1.87;;;19.10;58.30;;;;;;946090;149;27303;-76
2022/08/23 05:03:45;;;;;;;2.20;2.00;;;19.20;58.40;;;;;;944529;150;27377;-75
2022/08/23 05:06:11;;;;;;;2.17;1.92;;;19.30;58.60;;;;;;943016;150;27352;-74
2022/08/23 05:08:38;;;;;;;2.00;1.90;;;19.50;58.90;;;;;;946597;149;27219;-75
2022/08/23 05:11:04;;;;;;;4.03;2.10;;;19.70;59.00;;;;;;946475;149;27637;-75
2022/08/23 05:13:31;;;;;;;2.20;2.00;;;20.00;59.00;;;;;;947657;149;27245;-74
2022/08/23 05:15:58;;;;;;;2.83;2.00;;;20.40;59.00;;;;;;948621;149;27208;-75
2022/08/23 05:18:24;;;;;;;2.58;1.65;;;20.60;58.60;;;;;;944096;150;27834;-75
2022/08/23 05:20:51;;;;;;;3.22;1.90;;;20.90;58.10;;;;;;944461;149;27717;-75
2022/08/23 05:23:17;;;;;;;2.70;2.10;;;21.20;57.50;;;;;;946941;149;27234;-75
2022/08/23 05:25:50;;;;;;;2.47;1.70;;;21.30;57.00;;;;;;945357;150;27212;-75
2022/08/23 05:28:16;;;;;;;7.30;2.05;;;21.40;56.60;;;;;;947484;150;27375;-76
2022/08/23 05:30:43;;;;;;;4.08;1.80;;;21.50;56.30;;;;;;943324;147;27349;-75
2022/08/23 05:33:09;;;;;;;5.10;2.72;;;21.60;56.10;;;;;;946329;150;27311;-75
2022/08/23 05:35:37;;;;;;;2.95;1.90;;;21.60;56.00;;;;;;946930;148;27783;-75
2022/08/23 05:38:03;;;;;;;2.62;1.70;;;21.60;55.90;;;;;;946168;150;27264;-75
2022/08/23 05:40:29;;;;;;;3.05;2.25;;;21.60;56.50;;;;;;945831;149;27414;-75
2022/08/23 05:42:56;;;;;;;2.05;1.85;;;21.60;55.90;;;;;;946956;149;27339;-75
2022/08/23 05:45:22;;;;;;;3.92;2.20;;;21.60;55.90;;;;;;942277;150;27307;-76
2022/08/23 05:47:49;;;;;;;3.05;2.10;;;21.60;55.90;;;;;;947170;150;27230;-75
2022/08/23 05:50:16;;;;;;;2.50;2.27;;;21.60;55.90;;;;;;945840;149;27170;-74
2022/08/23 05:52:42;;;;;;;4.37;2.52;;;21.70;56.00;;;;;;945791;149;27259;-75
2022/08/23 05:55:09;;;;;;;3.50;1.92;;;21.70;55.90;;;;;;945493;147;27633;-76
2022/08/23 05:57:36;;;;;;;3.77;2.50;;;21.70;56.00;;;;;;946354;150;27284;-75
2022/08/23 06:00:02;;;;;;;3.12;2.10;;;21.80;56.00;;;;;;943942;149;27223;-75
2022/08/23 06:02:28;;;;;;;3.98;2.50;;;21.80;56.00;;;;;;944690;149;27264;-75
2022/08/23 06:04:55;;;;;;;8.48;2.15;;;21.90;56.00;;;;;;945176;148;27275;-74
2022/08/23 06:07:22;;;;;;;3.12;1.72;;;22.00;55.90;;;;;;945388;149;27257;-76
2022/08/23 06:09:48;;;;;;;2.42;1.90;;;22.10;55.80;;;;;;944605;150;27265;-74
2022/08/23 06:12:15;;;;;;;2.80;2.12;;;22.20;55.80;;;;;;944601;150;27314;-75
2022/08/23 06:14:41;;;;;;;2.20;1.90;;;22.30;55.80;;;;;;946771;149;27155;-75
2022/08/23 06:17:09;;;;;;;2.55;1.75;;;22.40;55.70;;;;;;946120;149;27191;-76
2022/08/23 06:19:35;;;;;;;2.15;1.87;;;22.60;55.60;;;;;;944684;149;27244;-75
2022/08/23 06:22:02;;;;;;;3.02;2.15;;;22.70;55.40;;;;;;945607;150;27262;-75
2022/08/23 06:24:28;;;;;;;2.45;1.85;;;22.80;55.20;;;;;;944390;149;27901;-74
2022/08/23 06:26:54;;;;;;;2.08;1.82;;;23.00;55.20;;;;;;946413;150;27183;-75
2022/08/23 06:29:21;;;;;;;2.17;1.92;;;23.10;55.00;;;;;;946016;150;27321;-74
2022/08/23 06:31:48;;;;;;;2.10;1.77;;;23.20;54.80;;;;;;945133;147;27216;-75
2022/08/23 06:34:20;;;;;;;2.08;1.90;;;23.40;54.80;;;;;;944518;149;27395;-76
2022/08/23 06:36:46;;;;;;;1.90;1.70;;;23.60;55.00;;;;;;944659;148;27286;-76
2022/08/23 06:39:13;;;;;;;2.22;1.82;;;23.90;55.00;;;;;;945390;147;27225;-76
2022/08/23 06:41:40;;;;;;;2.75;1.90;;;24.20;55.00;;;;;;947354;149;27270;-76
2022/08/23 06:44:07;;;;;;;3.67;1.80;;;24.70;55.30;;;;;;945837;148;27358;-76
2022/08/23 06:46:33;;;;;;;1.70;1.60;;;25.30;55.50;;;;;;946931;149;27242;-76
2022/08/23 06:49:03;;;;;;;1.87;1.77;;;26.10;55.60;;;;;;945872;149;27262;-76
2022/08/23 06:51:35;;;;;;;2.47;1.67;;;26.90;55.10;;;;;;945423;149;27335;-76
2022/08/23 06:54:01;;;;;;;2.98;1.47;;;27.80;54.10;;;;;;944294;149;27216;-75
2022/08/23 06:56:28;;;;;;;1.70;1.42;;;28.60;52.60;;;;;;943937;147;27212;-76
2022/08/23 06:58:55;;;;;;;2.40;1.47;;;29.20;51.10;;;;;;945048;150;27274;-75
2022/08/23 07:01:22;;;;;;;3.75;1.75;;;29.60;49.90;;;;;;944831;149;27763;-76
2022/08/23 07:03:48;;;;;;;2.77;1.67;;;30.00;49.00;;;;;;943050;147;27316;-76
2022/08/23 07:06:14;;;;;;;2.25;1.40;;;30.30;48.40;;;;;;946718;147;27237;-76
2022/08/23 07:08:41;;;;;;;4.22;2.17;;;30.60;48.10;;;;;;944574;149;27261;-76
2022/08/23 07:11:07;;;;;;;1.52;1.47;;;30.90;47.80;;;;;;944803;149;27273;-76
2022/08/23 07:13:34;;;;;;;2.12;1.50;;;31.20;47.70;;;;;;946650;147;27282;-76
2022/08/23 07:16:02;;;;;;;1.70;1.60;;;31.70;47.70;;;;;;945808;149;27218;-76
2022/08/23 07:18:27;;;;;;;2.98;1.55;;;32.30;47.40;;;;;;945419;149;27897;-76
2022/08/23 07:20:57;;;;;;;1.82;1.70;;;33.00;46.90;;;;;;946124;148;27323;-76
2022/08/23 07:23:23;;;;;;;2.22;1.85;;;33.60;46.00;;;;;;943842;149;27271;-76
2022/08/23 07:25:50;;;;;;;2.12;1.70;;;34.30;45.20;;;;;;946209;147;27300;-77
2022/08/23 07:28:16;;;;;;;4.85;1.57;;;34.90;44.30;;;;;;945921;147;26121;-77
2022/08/23 07:30:43;;;;;;;1.72;1.50;;;35.50;43.70;;;;;;945048;146;27157;-77
2022/08/23 07:33:10;;;;;;;5.00;1.70;;;36.10;42.90;;;;;;946247;149;27128;-77
2022/08/23 07:35:36;;;;;;;1.60;1.50;;;36.60;42.20;;;;;;945227;147;27693;-77
2022/08/23 07:38:03;;;;;;;1.90;1.67;;;37.20;41.60;;;;;;945257;149;26263;-77
2022/08/23 07:40:29;;;;;;;2.37;1.67;;;37.70;41.00;;;;;;945421;147;26304;-77
2022/08/23 07:42:56;;;;;;;1.57;1.42;;;38.20;40.10;;;;;;944910;149;26150;-77
2022/08/23 07:45:22;;;;;;;2.27;1.75;;;38.60;39.40;;;;;;949937;148;27857;-77
2022/08/23 07:47:49;;;;;;;2.72;1.57;;;39.00;38.80;;;;;;959011;148;27236;-77
2022/08/23 07:50:16;;;;;;;1.60;1.50;;;39.40;38.20;;;;;;954133;147;26205;-77
2022/08/23 07:52:42;;;;;;;1.22;1.12;;;39.80;37.80;;;;;;956719;148;27341;-77
2022/08/23 07:55:09;;;;;;;1.52;1.42;;;40.20;37.30;;;;;;956725;146;26150;-77
2022/08/23 07:57:35;;;;;;;2.17;1.50;;;40.60;37.00;;;;;;958029;148;26143;-77
2022/08/23 08:00:02;;;;;;;2.45;1.77;;;41.00;36.40;;;;;;957679;148;26225;-77
2022/08/23 08:02:28;;;;;;;1.50;1.40;;;41.40;35.70;;;;;;959958;148;26268;-77
2022/08/23 08:04:55;;;;;;;1.98;1.40;;;41.90;35.20;;;;;;956729;148;26180;-77
2022/08/23 08:07:22;;;;;;;1.85;1.45;;;42.30;34.60;;;;;;956629;148;26165;-77
2022/08/23 08:09:48;;;;;;;3.75;1.27;;;42.60;34.00;;;;;;956554;146;26119;-77
2022/08/23 08:12:15;;;;;;;1.57;1.30;;;43.00;33.40;;;;;;956484;147;26065;-77
2022/08/23 08:14:41;;;;;;;1.75;1.57;;;43.20;33.00;;;;;;955694;146;26149;-78
2022/08/23 08:17:08;;;;;;;1.42;1.27;;;43.50;32.50;;;;;;958778;148;26173;-78
2022/08/23 08:19:35;;;;;;;1.77;1.40;;;43.80;32.10;;;;;;955623;146;26143;-78
2022/08/23 08:22:01;;;;;;;1.70;1.07;;;44.10;31.70;;;;;;959276;148;27667;-79
2022/08/23 08:24:28;;;;;;;3.12;1.52;;;44.30;31.20;;;;;;958316;148;26157;-78
2022/08/23 08:26:54;;;;;;;3.52;1.30;;;44.60;30.50;;;;;;957160;146;26188;-78
2022/08/23 08:29:21;;;;;;;2.02;1.30;;;44.80;30.30;;;;;;958074;146;26248;-78
2022/08/23 08:31:49;;;;;;;3.17;1.42;;;45.00;29.80;;;;;;958510;148;26278;-78
2022/08/23 08:34:14;;;;;;;1.57;1.20;;;45.10;29.40;;;;;;956464;148;26201;-79
2022/08/23 08:36:44;;;;;;;1.37;1.22;;;45.20;29.20;;;;;;959182;148;26147;-79
2022/08/23 08:39:10;;;;;;;3.27;1.52;;;45.30;28.90;;;;;;954673;148;26213;-78
2022/08/23 08:41:52;;;;;;;1.42;1.32;;;45.40;28.60;;;;;;956298;148;26264;-79
2022/08/23 08:44:44;;;;;;;2.62;1.55;;;45.40;28.50;;;;;;958188;148;26624;-79
2022/08/23 08:47:15;;;;;;;1.32;1.22;;;45.50;28.60;;;;;;957992;148;26217;-78
2022/08/23 08:49:47;;;;;;;2.77;1.17;;;45.50;28.50;;;;;;952753;148;26113;-79
2022/08/23 08:52:25;;;;;;;1.40;1.30;;;45.70;28.30;;;;;;955790;148;26188;-79
2022/08/23 08:54:52;;;;;;;1.55;1.35;;;45.80;28.00;;;;;;957723;148;26303;-79
2022/08/23 08:57:19;;;;;;;1.45;1.30;;;46.00;27.80;;;;;;954589;148;26692;-79
2022/08/23 08:59:54;;;;;;;1.42;1.30;;;46.00;27.30;;;;;;956745;146;26158;-79
2022/08/23 09:02:20;;;;;;;1.40;1.27;;;45.90;26.90;;;;;;956156;146;26184;-79
2022/08/23 09:04:47;;;;;;;1.37;1.27;;;45.90;26.80;;;;;;958195;148;26281;-79
2022/08/23 09:07:16;;;;;;;3.08;1.40;;;45.70;26.80;;;;;;957055;148;26153;-79
2022/08/23 09:10:01;;;;;;;1.72;1.30;;;45.60;26.80;;;;;;947653;148;26496;-79
2022/08/23 09:12:42;;;;;;;1.40;1.20;;;45.60;26.80;;;;;;956926;148;26251;-79
2022/08/23 09:15:28;;;;;;;1.90;1.20;;;45.70;27.00;;;;;;957327;148;26251;-79
2022/08/23 09:17:57;;;;;;;1.92;1.02;;;45.80;26.80;;;;;;956427;148;26241;-79
2022/08/23 09:20:23;;;;;;;1.85;1.12;;;46.00;26.80;;;;;;955296;148;26220;-79
2022/08/23 09:22:50;;;;;;;2.95;1.20;;;46.10;26.50;;;;;;955509;146;26178;-79
2022/08/23 09:25:17;;;;;;;2.90;1.47;;;46.30;26.50;;;;;;955693;148;26215;-79
2022/08/23 09:27:43;;;;;;;2.58;1.30;;;46.30;26.20;;;;;;958887;148;26138;-79
2022/08/23 09:30:13;;;;;;;3.12;1.47;;;46.20;25.80;;;;;;957527;148;26168;-79
2022/08/23 09:32:40;;;;;;;3.92;1.60;;;46.10;25.60;;;;;;956502;148;26172;-79
2022/08/23 09:35:11;;;;;;;1.90;1.20;;;45.70;25.00;;;;;;959408;145;26141;-79
2022/08/23 09:37:53;;;;;;;1.52;1.27;;;45.40;25.50;;;;;;957729;148;26119;-79
2022/08/23 09:40:30;;;;;;;1.60;1.47;;;45.10;25.80;;;;;;956370;146;26205;-79
2022/08/23 09:43:13;;;;;;;2.42;1.65;;;44.80;26.00;;;;;;956123;146;26208;-79
2022/08/23 09:45:40;;;;;;;1.12;1.05;;;44.60;25.90;;;;;;956227;148;26975;-79
2022/08/23 09:48:06;;;;;;;1.98;1.22;;;44.50;25.90;;;;;;949590;149;26489;-79
2022/08/23 09:50:37;;;;;;;1.50;1.40;;;44.30;26.00;;;;;;950239;149;26171;-79
2022/08/23 09:53:06;;;;;;;1.50;1.30;;;44.30;26.00;;;;;;951510;149;26137;-79
2022/08/23 09:55:32;;;;;;;1.45;1.27;;;44.20;26.10;;;;;;952031;149;26201;-78
2022/08/23 09:58:02;;;;;;;2.52;1.50;;;44.10;26.00;;;;;;951901;149;26219;-80
2022/08/23 10:00:29;;;;;;;1.67;1.32;;;44.00;26.10;;;;;;953304;149;26152;-79
2022/08/23 10:02:56;;;;;;;1.55;1.40;;;43.80;26.10;;;;;;951639;149;26224;-79
2022/08/23 10:05:37;;;;;;;1.47;1.32;;;43.70;26.00;;;;;;946255;149;26248;-79
2022/08/23 10:08:03;;;;;;;2.02;1.52;;;43.50;26.00;;;;;;921348;149;26168;-79
2022/08/23 10:10:42;;;;;;;2.60;1.62;;;43.20;25.80;;;;;;949659;149;26191;-80
2022/08/23 10:13:05;;;;;;;1.40;1.30;;;42.90;25.80;;;;;;952474;149;26152;-79
2022/08/23 10:15:37;;;;;;;1.45;1.35;;;42.60;25.90;;;;;;950480;149;26239;-79
2022/08/23 10:18:06;;;;;;;3.10;1.57;;;42.30;26.00;;;;;;946750;149;26189;-79
2022/08/23 10:20:54;;;;;;;1.85;1.70;;;42.00;26.10;;;;;;953119;149;26151;-79
2022/08/23 10:23:35;;;;;;;1.52;1.12;;;41.70;26.10;;;;;;893989;149;26279;-79
2022/08/23 10:26:02;;;;;;;2.27;1.65;;;41.40;26.30;;;;;;952286;149;26187;-79
2022/08/23 10:31:31;;;;;;;1.47;1.35;;;40.80;26.40;;;;;;951869;149;26729;-79
2022/08/23 10:34:12;;;;;;;1.85;1.30;;;40.50;26.50;;;;;;949280;146;26175;-79
2022/08/23 10:36:45;;;;;;;2.80;1.40;;;40.10;26.50;;;;;;949904;147;27332;-79
2022/08/23 10:39:14;;;;;;;1.67;1.40;;;39.80;26.80;;;;;;950613;149;26141;-79
2022/08/23 10:41:41;;;;;;;2.22;1.62;;;39.60;26.80;;;;;;949326;149;28019;-79
2022/08/23 10:44:20;;;;;;;1.57;1.47;;;39.20;26.80;;;;;;937624;146;26203;-79
2022/08/23 10:46:46;;;;;;;1.60;1.37;;;39.00;26.90;;;;;;952742;148;27280;-79
2022/08/23 10:49:13;;;;;;;2.20;1.42;;;38.70;26.90;;;;;;956230;148;26104;-79
2022/08/23 10:51:39;;;;;;;4.80;1.55;;;38.30;27.10;;;;;;956254;146;27216;-79
2022/08/23 10:54:23;;;;;;;1.67;1.57;;;38.20;27.30;;;;;;956583;148;27279;-79
2022/08/23 10:56:44;;;;;;;3.70;1.62;;;37.90;27.30;;;;;;954887;148;27367;-78
2022/08/23 10:59:19;;;;;;;1.27;1.20;;;37.70;27.40;;;;;;957548;148;27250;-79
2022/08/23 11:01:56;;;;;;;1.30;1.20;;;37.50;27.40;;;;;;955028;148;27313;-79
2022/08/23 11:04:56;;;;;;;2.05;1.65;;;37.40;27.70;;;;;;954635;148;27310;-79
2022/08/23 11:07:25;;;;;;;1.45;1.35;;;37.20;27.60;;;;;;917966;154;27634;-79
2022/08/23 11:09:54;;;;;;;1.65;1.55;;;37.00;27.70;;;;;;920696;152;27388;-79
2022/08/23 11:12:27;;;;;;;2.15;1.60;;;36.90;27.80;;;;;;935474;148;27218;-79
2022/08/23 11:14:53;;;;;;;1.40;1.30;;;36.80;27.90;;;;;;957654;145;27843;-79
2022/08/23 11:17:22;;;;;;;1.70;1.57;;;36.70;28.00;;;;;;957294;148;27169;-79
2022/08/23 11:19:58;;;;;;;2.33;1.40;;;36.70;28.00;;;;;;954656;146;27262;-79
2022/08/23 11:22:28;;;;;;;1.02;1.02;;;36.60;27.90;;;;;;955797;148;27272;-79
2022/08/23 11:25:02;;;;;;;1.92;1.37;;;36.50;28.00;;;;;;956400;146;27221;-79
2022/08/23 11:27:32;;;;;;;6.10;1.72;;;36.40;28.00;;;;;;955373;146;27334;-79
2022/08/23 11:29:59;;;;;;;1.95;1.85;;;36.30;28.00;;;;;;957335;146;27256;-79
2022/08/23 11:32:31;;;;;;;1.65;1.45;;;36.20;28.00;;;;;;952114;148;27271;-79
2022/08/23 11:34:58;;;;;;;1.47;1.37;;;36.10;28.10;;;;;;954058;148;27693;-80
2022/08/23 11:37:25;;;;;;;1.35;1.25;;;36.00;28.20;;;;;;956501;148;27684;-79
2022/08/23 11:39:59;;;;;;;1.52;1.42;;;35.90;28.40;;;;;;957829;148;27405;-79
2022/08/23 11:42:30;;;;;;;2.98;1.60;;;35.90;28.50;;;;;;956504;148;27260;-79
2022/08/23 11:44:55;;;;;;;2.30;1.50;;;35.80;28.50;;;;;;956284;148;27311;-79
2022/08/23 11:47:28;;;;;;;3.50;1.60;;;35.80;28.40;;;;;;956880;148;27809;-79
2022/08/23 11:50:10;;;;;;;2.27;1.60;;;35.80;28.40;;;;;;954786;148;27294;-79
2022/08/23 11:52:46;;;;;;;1.30;1.20;;;35.70;28.30;;;;;;956779;148;27283;-79
2022/08/23 11:55:23;;;;;;;3.58;1.40;;;35.60;28.30;;;;;;956853;147;27193;-79
2022/08/23 11:57:50;;;;;;;2.50;1.52;;;35.60;28.50;;;;;;955165;148;27228;-79
2022/08/23 12:00:35;;;;;;;1.65;1.40;;;35.50;28.60;;;;;;956041;148;27234;-79
2022/08/23 12:03:04;;;;;;;2.27;1.55;;;35.50;28.60;;;;;;956329;148;27358;-79
2022/08/23 12:05:33;;;;;;;1.65;1.32;;;35.50;28.60;;;;;;954693;148;27350;-79
2022/08/23 12:08:04;;;;;;;2.02;1.62;;;35.40;28.60;;;;;;959107;148;27277;-79
2022/08/23 12:10:41;;;;;;;1.45;1.30;;;35.40;28.50;;;;;;958157;148;27418;-79
2022/08/23 12:13:21;;;;;;;4.80;1.87;;;35.30;28.40;;;;;;949239;148;27344;-79
2022/08/23 12:16:18;;;;;;;3.37;1.85;;;35.30;28.40;;;;;;958537;148;27347;-79
2022/08/23 12:18:44;;;;;;;1.77;1.67;;;35.10;28.40;;;;;;958127;146;27286;-79
2022/08/23 12:21:28;;;;;;;2.25;1.60;;;35.00;28.50;;;;;;955293;148;27393;-79
2022/08/23 12:23:55;;;;;;;1.35;1.25;;;34.90;28.60;;;;;;955782;148;27229;-79
2022/08/23 12:26:27;;;;;;;2.00;1.70;;;34.80;28.60;;;;;;956457;146;27162;-79
2022/08/23 12:28:56;;;;;;;1.70;1.60;;;34.70;28.60;;;;;;956067;148;27328;-79
2022/08/23 12:31:32;;;;;;;2.80;1.55;;;34.60;28.80;;;;;;957047;148;27361;-79
2022/08/23 12:34:11;;;;;;;1.77;1.67;;;34.50;28.80;;;;;;956610;148;27225;-79
2022/08/23 12:36:55;;;;;;;1.52;1.42;;;34.50;28.90;;;;;;957949;148;27372;-78
2022/08/23 12:39:22;;;;;;;2.08;1.10;;;34.40;28.90;;;;;;936177;148;27209;-79
2022/08/23 12:41:51;;;;;;;2.62;1.40;;;34.30;29.00;;;;;;958756;148;27297;-78
2022/08/23 12:44:17;;;;;;;2.08;1.67;;;34.20;29.00;;;;;;955718;148;27332;-78
2022/08/23 12:46:44;;;;;;;2.12;1.72;;;34.10;29.10;;;;;;956943;148;27244;-79
2022/08/23 12:49:11;;;;;;;2.12;1.52;;;34.00;29.30;;;;;;952981;148;27305;-79
2022/08/23 12:51:40;;;;;;;1.87;1.55;;;33.90;29.30;;;;;;943640;149;27230;-79
2022/08/23 12:54:12;;;;;;;1.60;1.50;;;33.80;29.40;;;;;;944352;149;27307;-78
2022/08/23 12:56:39;;;;;;;2.45;1.70;;;33.80;29.50;;;;;;946140;149;27199;-78
2022/08/23 12:59:06;;;;;;;1.60;1.50;;;33.70;29.40;;;;;;943754;149;27331;-78
2022/08/23 13:01:35;;;;;;;1.62;1.52;;;33.70;29.50;;;;;;945234;149;27210;-78
2022/08/23 13:04:03;;;;;;;3.50;1.60;;;33.70;29.60;;;;;;946247;150;27392;-78
2022/08/23 13:06:30;;;;;;;1.50;1.40;;;33.70;29.60;;;;;;945867;149;27304;-78